Downstream station:
SHEF ID: INCM7 Indian Creek near Lanagan, MO
STATION TYPE:
PRECIP STAGE RIV-FLOW BAT-LOAD
in ft cfs volt
Ccp-Rev Ccp-Rev Ccp-Rev Ccp-Rev
(US/Central)
04/06 00:00 0.00 2.61 433 12.71
04/06 01:00 0.00 2.64 446 12.71
04/06 02:00 0.00 2.61 433 12.65
04/06 03:00 0.00 2.61 433 12.65
04/06 04:00 0.00 2.62 437 12.65
04/06 05:00 0.00 2.60 428 12.60
04/06 06:00 0.00 2.61 433 12.60
04/06 07:00 0.00 2.60 428 12.60
04/06 08:00 0.00 2.59 424 12.60
04/06 09:00 0.00 2.60 428 12.89
04/06 10:00 0.00 2.60 428 13.18
04/06 11:00 0.00 2.59 424 13.42
04/06 12:00 0.00 2.57 416 13.65
04/06 13:00 0.00 2.58 420 14.18
04/06 14:00 0.00 2.57 416 13.77
04/06 15:00 0.00 2.57 416 13.59
04/06 16:00 0.00 2.56 412 13.65
04/06 17:00 0.00 2.55 407 13.59
04/06 18:00 0.00 2.54 403 13.12
04/06 19:00 0.00 2.55 407 13.65
04/06 20:00 0.00 2.55 407 13.00
04/06 21:00 0.00 2.53 399 12.83
04/06 22:00 0.00 2.53 399 12.77
04/06 23:00 0.00 2.51 391 12.71